Time;durP1;ratioP1;P1;durP2;ratioP2;P2;SDS_P1;SDS_P2;PMS_P1;PMS_P2;Temp;Humidity;BMP_temperature;BMP_pressure;BME280_temperature;BME280_humidity;BME280_pressure;Samples;Min_cycle;Max_cycle;Signal;HPM_P1;HPM_P2
2023/10/28 00:00:50;;;;;;;1.00;0.30;;;10.60;99.90;;;;;;4974575;28;20030;-72
2023/10/28 00:03:16;;;;;;;0.20;0.20;;;10.60;99.90;;;;;;4974061;28;20038;-72
2023/10/28 00:05:42;;;;;;;1.75;0.30;;;10.60;99.90;;;;;;4974467;28;20385;-73
2023/10/28 00:08:08;;;;;;;1.30;0.30;;;10.60;99.90;;;;;;4974171;28;20031;-73
2023/10/28 00:10:35;;;;;;;0.80;0.50;;;10.50;99.90;;;;;;4973875;28;20031;-73
2023/10/28 00:13:01;;;;;;;1.00;0.32;;;10.60;99.90;;;;;;4974013;28;20027;-72
2023/10/28 00:15:27;;;;;;;1.35;0.30;;;10.50;99.90;;;;;;4973926;28;20058;-73
2023/10/28 00:17:57;;;;;;;1.45;0.47;;;10.50;99.90;;;;;;4973954;28;20130;-73
2023/10/28 00:20:23;;;;;;;1.20;0.30;;;10.50;99.90;;;;;;4973772;28;20038;-73
2023/10/28 00:22:53;;;;;;;1.80;0.52;;;10.40;99.90;;;;;;4957021;28;20039;-73
2023/10/28 00:25:23;;;;;;;1.17;0.30;;;10.50;99.90;;;;;;4973709;28;20058;-73
2023/10/28 00:27:49;;;;;;;2.67;0.40;;;10.50;99.90;;;;;;4959886;28;20126;-73
2023/10/28 00:30:14;;;;;;;0.90;0.30;;;10.50;99.90;;;;;;4976837;28;20486;-73
2023/10/28 00:32:41;;;;;;;1.33;0.35;;;10.50;99.90;;;;;;4977067;28;20076;-73
2023/10/28 00:35:11;;;;;;;2.13;0.57;;;10.50;99.90;;;;;;4977020;28;20027;-73
2023/10/28 00:37:37;;;;;;;0.77;0.30;;;10.50;99.90;;;;;;4993335;28;20124;-73
2023/10/28 00:40:05;;;;;;;1.05;0.45;;;10.40;99.90;;;;;;4997443;28;20482;-73
2023/10/28 00:42:35;;;;;;;2.22;0.43;;;10.40;99.90;;;;;;4997066;28;20021;-74
2023/10/28 00:45:02;;;;;;;0.38;0.20;;;10.40;99.90;;;;;;4996991;28;20023;-73
2023/10/28 00:47:28;;;;;;;2.40;0.40;;;10.40;99.90;;;;;;4996829;28;20032;-73
2023/10/28 00:49:54;;;;;;;0.85;0.50;;;10.40;99.90;;;;;;4996800;28;20512;-72
2023/10/28 00:52:21;;;;;;;1.30;0.43;;;10.40;99.90;;;;;;4997362;28;20026;-74
2023/10/28 00:54:48;;;;;;;4.53;0.57;;;10.40;99.90;;;;;;4997065;28;20025;-73
2023/10/28 00:57:16;;;;;;;1.70;0.65;;;10.40;99.90;;;;;;4997023;28;20050;-73
2023/10/28 00:59:42;;;;;;;3.50;0.70;;;10.40;99.90;;;;;;4996534;28;20042;-74
2023/10/28 01:02:12;;;;;;;1.17;0.57;;;10.40;99.90;;;;;;4997136;28;20035;-73
2023/10/28 01:04:38;;;;;;;1.40;0.32;;;10.40;99.90;;;;;;4996336;28;20030;-73
2023/10/28 01:07:04;;;;;;;1.08;0.30;;;10.40;99.90;;;;;;4979452;28;20485;-74
2023/10/28 01:09:29;;;;;;;0.95;0.30;;;10.50;99.90;;;;;;4996923;28;20034;-73
2023/10/28 01:11:55;;;;;;;0.77;0.30;;;10.40;99.90;;;;;;4996673;28;20030;-72
2023/10/28 01:14:21;;;;;;;0.80;0.40;;;10.40;99.90;;;;;;4996983;28;20026;-73
2023/10/28 01:16:48;;;;;;;0.68;0.50;;;10.40;99.90;;;;;;4986230;28;20027;-73
2023/10/28 01:19:15;;;;;;;2.40;0.40;;;10.40;99.90;;;;;;4976295;28;20395;-74
2023/10/28 01:21:43;;;;;;;1.30;0.50;;;10.50;99.90;;;;;;4976776;28;20023;-74
2023/10/28 01:24:09;;;;;;;0.80;0.30;;;10.50;99.90;;;;;;4977088;28;20043;-73
2023/10/28 01:26:36;;;;;;;1.25;0.40;;;10.50;99.90;;;;;;4977122;28;20023;-74
2023/10/28 01:29:02;;;;;;;1.45;0.85;;;10.50;99.90;;;;;;4976781;28;20041;-73
2023/10/28 01:31:28;;;;;;;2.53;0.70;;;10.50;99.90;;;;;;4977139;28;20117;-72
2023/10/28 01:33:54;;;;;;;1.70;0.45;;;10.50;99.90;;;;;;4976751;28;20047;-74
2023/10/28 01:36:20;;;;;;;2.65;0.95;;;10.50;99.90;;;;;;4976221;28;20026;-73
2023/10/28 01:38:45;;;;;;;2.80;0.40;;;10.50;99.90;;;;;;4974591;28;20030;-74
2023/10/28 01:41:13;;;;;;;2.67;0.80;;;10.50;99.90;;;;;;4976337;28;20035;-74
2023/10/28 01:43:40;;;;;;;2.83;0.70;;;10.50;99.90;;;;;;4976256;28;20033;-73
2023/10/28 01:46:06;;;;;;;9.40;1.10;;;10.60;99.90;;;;;;4976538;28;20022;-74
2023/10/28 01:48:32;;;;;;;6.40;0.80;;;10.60;99.90;;;;;;4976236;28;20230;-73
2023/10/28 01:50:57;;;;;;;3.03;0.50;;;10.60;99.90;;;;;;4958594;28;20026;-74
2023/10/28 01:53:24;;;;;;;4.20;1.35;;;10.60;99.90;;;;;;4976249;28;20026;-73
2023/10/28 01:55:50;;;;;;;2.58;0.68;;;10.60;99.90;;;;;;4976125;28;20027;-73
2023/10/28 01:58:17;;;;;;;5.90;1.00;;;10.60;99.90;;;;;;4976288;28;20033;-74
2023/10/28 02:00:43;;;;;;;2.40;0.80;;;10.60;99.90;;;;;;4976163;28;20509;-74
2023/10/28 02:03:11;;;;;;;2.80;0.55;;;10.60;99.90;;;;;;4976089;28;20034;-74
2023/10/28 02:05:37;;;;;;;6.57;1.35;;;10.60;99.90;;;;;;4976114;28;20023;-73
2023/10/28 02:08:03;;;;;;;10.23;1.17;;;10.60;99.90;;;;;;4975391;28;20074;-73
2023/10/28 02:10:29;;;;;;;5.57;0.73;;;10.50;99.90;;;;;;4974554;28;20402;-74
2023/10/28 02:12:55;;;;;;;2.33;0.88;;;10.50;99.90;;;;;;4958508;28;20029;-74
2023/10/28 02:15:20;;;;;;;2.17;0.60;;;10.50;99.90;;;;;;4976000;28;20497;-73
2023/10/28 02:17:46;;;;;;;3.75;0.73;;;10.50;99.90;;;;;;4975669;28;20101;-73
2023/10/28 02:20:13;;;;;;;4.05;0.77;;;10.50;99.90;;;;;;4975616;28;20085;-74
2023/10/28 02:22:39;;;;;;;6.80;0.98;;;10.40;99.90;;;;;;4975686;28;20455;-73
2023/10/28 02:25:07;;;;;;;5.30;1.15;;;10.40;99.90;;;;;;4975726;28;20550;-73
2023/10/28 02:27:37;;;;;;;6.22;0.82;;;10.40;99.90;;;;;;4975409;28;20027;-73
2023/10/28 02:30:05;;;;;;;4.15;0.85;;;10.40;99.90;;;;;;4975100;28;20030;-73
2023/10/28 02:32:30;;;;;;;2.28;0.80;;;10.40;99.90;;;;;;4975147;28;20023;-73
2023/10/28 02:34:59;;;;;;;3.45;0.80;;;10.50;99.90;;;;;;4975350;28;20023;-73
2023/10/28 02:37:25;;;;;;;4.60;0.70;;;10.50;99.90;;;;;;4975597;28;20041;-73
2023/10/28 02:39:51;;;;;;;4.47;0.88;;;10.40;99.90;;;;;;4975429;28;20050;-73
2023/10/28 02:42:17;;;;;;;6.88;0.82;;;10.50;99.90;;;;;;4974404;28;20101;-73
2023/10/28 02:44:42;;;;;;;6.10;1.27;;;10.50;99.90;;;;;;4975113;28;20030;-73
2023/10/28 02:47:08;;;;;;;6.88;1.10;;;10.50;99.90;;;;;;4975421;28;20031;-73
2023/10/28 02:49:36;;;;;;;4.70;0.75;;;10.50;99.90;;;;;;4974879;28;20019;-73
2023/10/28 02:52:02;;;;;;;6.03;1.35;;;10.50;99.90;;;;;;4975133;28;20030;-73
2023/10/28 02:54:27;;;;;;;5.70;0.98;;;10.60;99.90;;;;;;4975210;28;20521;-74
2023/10/28 02:56:53;;;;;;;6.57;1.13;;;10.60;99.90;;;;;;4975021;28;20043;-74
2023/10/28 02:59:19;;;;;;;6.65;1.10;;;10.60;99.90;;;;;;4974962;28;20038;-72
2023/10/28 03:01:44;;;;;;;5.90;1.02;;;10.60;99.90;;;;;;4974635;28;20030;-73
2023/10/28 03:04:11;;;;;;;10.13;1.50;;;10.60;99.90;;;;;;4975407;28;20030;-73
2023/10/28 03:06:38;;;;;;;7.03;0.80;;;10.70;99.90;;;;;;4974695;28;20058;-72
2023/10/28 03:09:04;;;;;;;5.85;1.45;;;10.70;99.90;;;;;;4974683;28;20026;-73
2023/10/28 03:11:29;;;;;;;5.70;1.13;;;10.70;99.90;;;;;;4974341;28;20027;-73
2023/10/28 03:13:55;;;;;;;3.70;1.10;;;10.70;99.90;;;;;;4973595;28;20034;-73
2023/10/28 03:16:20;;;;;;;8.90;1.02;;;10.70;99.90;;;;;;4975288;28;20435;-73
2023/10/28 03:18:46;;;;;;;8.13;0.90;;;10.70;99.90;;;;;;4974469;28;20061;-73
2023/10/28 03:21:12;;;;;;;6.60;1.38;;;10.70;99.90;;;;;;4975124;28;20038;-73
2023/10/28 03:23:37;;;;;;;7.38;1.00;;;10.70;99.90;;;;;;4974900;28;20026;-74
2023/10/28 03:26:06;;;;;;;6.32;1.10;;;10.70;99.90;;;;;;4975392;28;20027;-74
2023/10/28 03:28:32;;;;;;;5.07;1.10;;;10.70;99.90;;;;;;4958566;28;20035;-73
2023/10/28 03:30:58;;;;;;;7.45;1.08;;;10.70;99.90;;;;;;4974906;28;20030;-75
2023/10/28 03:33:23;;;;;;;6.18;1.27;;;10.70;99.90;;;;;;4974859;28;20019;-75
2023/10/28 03:35:49;;;;;;;3.47;1.27;;;10.70;99.90;;;;;;4974901;28;20094;-74
2023/10/28 03:38:14;;;;;;;4.18;1.30;;;10.70;99.90;;;;;;4974550;28;20022;-74
2023/10/28 03:40:40;;;;;;;5.10;0.90;;;10.70;99.90;;;;;;4957534;28;20030;-75
2023/10/28 03:43:07;;;;;;;6.78;1.42;;;10.70;99.90;;;;;;4973425;28;20023;-74
2023/10/28 03:45:35;;;;;;;1.98;0.70;;;10.70;99.90;;;;;;4970006;28;20513;-76
2023/10/28 03:48:01;;;;;;;3.95;1.10;;;10.70;99.90;;;;;;4970661;28;20543;-75
2023/10/28 03:50:26;;;;;;;5.95;0.73;;;10.70;99.90;;;;;;4967555;28;20114;-75
2023/10/28 03:52:54;;;;;;;4.40;0.95;;;10.70;99.90;;;;;;4965771;28;20062;-76
2023/10/28 03:55:19;;;;;;;2.28;0.90;;;10.70;99.90;;;;;;4965118;28;20027;-73
2023/10/28 03:57:45;;;;;;;4.35;0.93;;;10.70;99.90;;;;;;4963329;28;20031;-73
2023/10/28 04:00:13;;;;;;;4.35;0.90;;;10.70;99.90;;;;;;4968169;28;20026;-73
2023/10/28 04:02:38;;;;;;;4.68;1.15;;;10.70;99.90;;;;;;4971115;28;20091;-73
2023/10/28 04:05:04;;;;;;;3.72;0.93;;;10.70;99.90;;;;;;4974319;28;20038;-72
2023/10/28 04:07:30;;;;;;;3.55;0.80;;;10.70;99.90;;;;;;4960512;28;20586;-73
2023/10/28 04:09:55;;;;;;;6.28;1.60;;;10.60;99.90;;;;;;4969878;28;20109;-74
2023/10/28 04:12:21;;;;;;;7.55;1.33;;;10.60;99.90;;;;;;4966742;28;20045;-72
2023/10/28 04:14:47;;;;;;;5.00;0.90;;;10.60;99.90;;;;;;4972261;28;20406;-71
2023/10/28 04:17:12;;;;;;;5.90;1.08;;;10.60;99.90;;;;;;4971382;28;20039;-71
2023/10/28 04:19:38;;;;;;;2.30;0.63;;;10.60;99.90;;;;;;4973123;28;20479;-71
2023/10/28 04:22:04;;;;;;;5.22;1.20;;;10.50;99.90;;;;;;4975583;28;20463;-71
2023/10/28 04:24:30;;;;;;;5.10;0.60;;;10.50;99.90;;;;;;4969146;28;20082;-71
2023/10/28 04:26:55;;;;;;;5.07;0.80;;;10.50;99.90;;;;;;4972297;28;20466;-72
2023/10/28 04:29:21;;;;;;;6.53;1.00;;;10.50;99.90;;;;;;4970640;28;20486;-71
2023/10/28 04:31:47;;;;;;;5.63;0.90;;;10.50;99.90;;;;;;4972103;28;20034;-71
2023/10/28 04:34:13;;;;;;;1.63;0.57;;;10.40;99.90;;;;;;4971874;28;20023;-71
2023/10/28 04:36:38;;;;;;;2.95;0.73;;;10.40;99.90;;;;;;4967491;28;20454;-73
2023/10/28 04:39:04;;;;;;;3.03;0.90;;;10.40;99.90;;;;;;4974222;28;20103;-72
2023/10/28 04:41:29;;;;;;;4.68;0.77;;;10.40;99.90;;;;;;4972837;28;20089;-73
2023/10/28 04:43:55;;;;;;;7.18;0.70;;;10.40;99.90;;;;;;4970428;28;20113;-73
2023/10/28 04:46:21;;;;;;;2.22;0.40;;;10.40;99.90;;;;;;4974130;28;20030;-73
2023/10/28 04:48:46;;;;;;;7.68;0.70;;;10.50;99.90;;;;;;4971180;28;20062;-73
2023/10/28 04:51:13;;;;;;;2.97;0.93;;;10.50;99.90;;;;;;4972018;28;20030;-73
2023/10/28 04:53:38;;;;;;;1.13;0.50;;;10.50;99.90;;;;;;4970681;28;20390;-72
2023/10/28 04:56:08;;;;;;;2.55;1.00;;;10.50;99.90;;;;;;4973809;28;20031;-72
2023/10/28 04:58:34;;;;;;;3.42;0.73;;;10.60;99.90;;;;;;4969693;28;20038;-71
2023/10/28 05:00:59;;;;;;;2.78;1.10;;;10.60;99.90;;;;;;4967081;28;20034;-71
2023/10/28 05:03:25;;;;;;;3.85;0.50;;;10.60;99.90;;;;;;4967894;28;20025;-71
2023/10/28 05:05:50;;;;;;;2.92;0.60;;;10.60;99.90;;;;;;4971715;28;20477;-72
2023/10/28 05:08:16;;;;;;;2.08;0.40;;;10.60;99.90;;;;;;4969526;28;20038;-73
2023/10/28 05:10:42;;;;;;;2.67;0.60;;;10.60;99.90;;;;;;4970725;28;20046;-71
2023/10/28 05:13:10;;;;;;;2.58;0.60;;;10.70;99.90;;;;;;4970566;28;20046;-71
2023/10/28 05:15:36;;;;;;;2.42;0.63;;;10.60;99.90;;;;;;4966620;28;20020;-72
2023/10/28 05:18:02;;;;;;;5.85;1.40;;;10.70;99.90;;;;;;4968867;28;20037;-72
2023/10/28 05:20:28;;;;;;;7.07;1.05;;;10.70;99.90;;;;;;4970486;28;20034;-72
2023/10/28 05:22:53;;;;;;;2.60;0.80;;;10.70;99.90;;;;;;4969857;28;20494;-73
2023/10/28 05:25:19;;;;;;;2.50;0.85;;;10.70;99.90;;;;;;4972127;28;20067;-72
2023/10/28 05:27:44;;;;;;;4.70;1.00;;;10.60;99.90;;;;;;4967170;28;20026;-72
2023/10/28 05:30:11;;;;;;;4.80;1.17;;;10.70;99.90;;;;;;4973524;28;20037;-72
2023/10/28 05:32:37;;;;;;;3.28;0.80;;;10.70;99.90;;;;;;4972673;28;20015;-72
2023/10/28 05:35:03;;;;;;;4.60;1.10;;;10.70;99.90;;;;;;4969029;28;20062;-72
2023/10/28 05:37:28;;;;;;;4.10;1.23;;;10.70;99.90;;;;;;4966037;28;20065;-71
2023/10/28 05:39:56;;;;;;;3.85;1.20;;;10.70;99.90;;;;;;4969899;28;20046;-71
2023/10/28 05:42:23;;;;;;;6.53;1.45;;;10.70;99.90;;;;;;4966307;28;20070;-71
2023/10/28 05:44:49;;;;;;;5.18;1.67;;;10.70;99.90;;;;;;4962406;28;20034;-71
2023/10/28 05:47:16;;;;;;;5.97;1.60;;;10.70;99.90;;;;;;4964413;28;20429;-71
2023/10/28 05:49:42;;;;;;;4.57;2.08;;;10.70;99.90;;;;;;4970857;28;20114;-72
2023/10/28 05:52:09;;;;;;;4.22;0.85;;;10.70;99.90;;;;;;4969388;28;20023;-73
2023/10/28 05:54:35;;;;;;;2.70;1.10;;;10.90;99.90;;;;;;4968180;28;20023;-74
2023/10/28 05:57:00;;;;;;;3.63;1.20;;;11.00;99.90;;;;;;4971502;28;20102;-75
2023/10/28 05:59:26;;;;;;;3.78;0.90;;;11.10;99.90;;;;;;4965263;28;20135;-73
2023/10/28 06:01:52;;;;;;;2.67;0.80;;;11.20;99.90;;;;;;4969585;28;20039;-74
2023/10/28 06:04:21;;;;;;;6.82;1.20;;;11.20;99.90;;;;;;4963153;28;20034;-74
2023/10/28 06:06:47;;;;;;;4.13;0.98;;;11.20;99.90;;;;;;4963611;28;20482;-73
2023/10/28 06:09:13;;;;;;;3.20;0.90;;;11.20;99.90;;;;;;4971848;28;20039;-74
2023/10/28 06:11:39;;;;;;;5.75;0.90;;;11.20;99.90;;;;;;4968526;28;20576;-74
2023/10/28 06:14:05;;;;;;;1.90;0.90;;;11.10;99.90;;;;;;4969251;28;20054;-74
2023/10/28 06:16:30;;;;;;;2.08;0.55;;;11.00;99.90;;;;;;4967607;28;20102;-74
2023/10/28 06:18:56;;;;;;;3.72;0.60;;;11.00;99.90;;;;;;4967477;28;20027;-74
2023/10/28 06:21:23;;;;;;;4.30;0.82;;;10.80;99.90;;;;;;4969211;28;20034;-73
2023/10/28 06:23:48;;;;;;;4.95;0.57;;;10.80;99.90;;;;;;4972404;28;20078;-73
2023/10/28 06:26:14;;;;;;;2.90;0.60;;;10.80;99.90;;;;;;4972940;28;20034;-73
2023/10/28 06:28:39;;;;;;;3.35;0.63;;;10.70;99.90;;;;;;4975959;28;20109;-73
2023/10/28 06:31:06;;;;;;;5.05;1.00;;;10.70;99.90;;;;;;4973560;28;20054;-73
2023/10/28 06:33:32;;;;;;;3.75;0.80;;;10.70;99.90;;;;;;4973628;28;20053;-73
2023/10/28 06:35:58;;;;;;;2.80;0.73;;;10.60;99.90;;;;;;4974295;28;20023;-73
2023/10/28 06:38:27;;;;;;;1.88;0.88;;;10.60;99.90;;;;;;4970317;28;20482;-73
2023/10/28 06:40:53;;;;;;;3.38;0.77;;;10.60;99.90;;;;;;4970595;28;20486;-73
2023/10/28 06:43:19;;;;;;;1.85;0.70;;;10.60;99.90;;;;;;4975451;28;20031;-73
2023/10/28 06:45:44;;;;;;;3.35;0.88;;;10.50;99.90;;;;;;4969454;28;20742;-74
2023/10/28 06:48:10;;;;;;;3.88;1.10;;;10.60;99.90;;;;;;4966545;28;20031;-71
2023/10/28 06:50:36;;;;;;;4.72;0.70;;;10.60;99.90;;;;;;4954530;28;20033;-72
2023/10/28 06:53:02;;;;;;;2.17;0.65;;;10.60;99.90;;;;;;4963691;28;20309;-71
2023/10/28 06:55:27;;;;;;;5.22;0.75;;;10.60;99.90;;;;;;4971010;28;20465;-72
2023/10/28 06:57:54;;;;;;;5.30;0.77;;;10.60;99.90;;;;;;4967918;28;20027;-71
2023/10/28 07:00:24;;;;;;;3.38;0.75;;;10.60;99.90;;;;;;4971032;28;20049;-72
2023/10/28 07:02:49;;;;;;;3.28;0.80;;;10.60;99.90;;;;;;4967238;28;20103;-71
2023/10/28 07:05:15;;;;;;;2.58;0.70;;;10.60;99.90;;;;;;4953579;28;20113;-71
2023/10/28 07:07:40;;;;;;;4.78;0.82;;;10.60;99.90;;;;;;4967338;28;20035;-71
2023/10/28 07:10:07;;;;;;;3.25;1.02;;;10.70;99.90;;;;;;4965033;28;20065;-71
2023/10/28 07:12:33;;;;;;;2.78;0.80;;;10.70;99.90;;;;;;4951908;28;20035;-72
2023/10/28 07:14:58;;;;;;;10.15;1.90;;;10.70;99.90;;;;;;4968786;28;20034;-71
2023/10/28 07:17:24;;;;;;;2.60;1.02;;;10.70;99.90;;;;;;4952237;28;20046;-72
2023/10/28 07:19:52;;;;;;;3.35;0.80;;;10.70;99.90;;;;;;4969629;28;20030;-72
2023/10/28 07:22:20;;;;;;;3.10;0.70;;;10.80;99.90;;;;;;4968579;28;20081;-72
2023/10/28 07:24:46;;;;;;;3.45;1.10;;;10.80;99.90;;;;;;4963964;28;20119;-72
2023/10/28 07:27:12;;;;;;;3.35;0.60;;;10.80;99.90;;;;;;4969484;28;20022;-72
2023/10/28 07:29:38;;;;;;;1.65;0.70;;;10.80;99.90;;;;;;4965254;28;20035;-71
2023/10/28 07:32:05;;;;;;;2.60;0.77;;;10.90;99.90;;;;;;4969226;28;20501;-72
2023/10/28 07:34:30;;;;;;;2.20;0.50;;;11.00;99.90;;;;;;4954618;28;20033;-72
2023/10/28 07:36:59;;;;;;;2.38;0.70;;;11.00;99.90;;;;;;4970435;28;20470;-72
2023/10/28 07:39:25;;;;;;;3.53;1.15;;;11.10;99.90;;;;;;4966190;28;20081;-73
2023/10/28 07:41:53;;;;;;;2.25;0.90;;;11.20;99.90;;;;;;4969146;28;20031;-72
2023/10/28 07:44:19;;;;;;;3.67;0.70;;;11.20;99.90;;;;;;4968600;28;20030;-72
2023/10/28 07:46:46;;;;;;;2.85;0.98;;;11.20;99.90;;;;;;4965673;28;20031;-71
2023/10/28 07:49:12;;;;;;;1.85;0.70;;;11.20;99.90;;;;;;4961992;28;20046;-72
2023/10/28 07:51:38;;;;;;;1.90;0.70;;;11.30;99.90;;;;;;4969160;28;20023;-71
2023/10/28 07:54:04;;;;;;;3.33;0.65;;;11.30;99.90;;;;;;4965170;28;20356;-72
2023/10/28 07:56:31;;;;;;;2.10;0.55;;;11.30;99.90;;;;;;4963605;28;20023;-72
2023/10/28 07:58:59;;;;;;;2.08;0.65;;;11.40;99.90;;;;;;4968525;28;20031;-72
2023/10/28 08:01:27;;;;;;;3.13;0.88;;;11.40;99.90;;;;;;4969659;28;20463;-72
2023/10/28 08:03:53;;;;;;;3.83;0.70;;;11.50;99.90;;;;;;4967456;28;20028;-71
2023/10/28 08:06:19;;;;;;;3.97;0.75;;;11.60;99.90;;;;;;4966946;28;20034;-72
2023/10/28 08:08:48;;;;;;;2.22;1.00;;;11.60;99.90;;;;;;4966947;28;20031;-72
2023/10/28 08:11:16;;;;;;;5.10;0.80;;;11.70;99.90;;;;;;4965511;28;20030;-72
2023/10/28 08:13:42;;;;;;;4.00;0.95;;;11.80;99.90;;;;;;4967343;28;20019;-71
2023/10/28 08:16:12;;;;;;;2.28;0.80;;;11.80;99.90;;;;;;4969326;28;20084;-72
2023/10/28 08:18:38;;;;;;;3.22;0.80;;;11.90;99.90;;;;;;4966346;28;20498;-71
2023/10/28 08:21:04;;;;;;;4.68;0.90;;;12.00;99.90;;;;;;4970186;28;20062;-71
2023/10/28 08:23:29;;;;;;;4.20;0.90;;;12.10;99.90;;;;;;4966974;28;20026;-72
2023/10/28 08:25:59;;;;;;;2.15;0.90;;;12.20;99.90;;;;;;4968523;28;20113;-72
2023/10/28 08:28:26;;;;;;;2.05;0.82;;;12.20;99.90;;;;;;4964610;28;20026;-71
2023/10/28 08:30:52;;;;;;;3.05;0.77;;;12.30;99.90;;;;;;4969762;28;20023;-72
2023/10/28 08:33:20;;;;;;;3.65;1.10;;;12.30;99.90;;;;;;4966666;28;20054;-72
2023/10/28 08:35:50;;;;;;;2.65;0.73;;;12.30;99.90;;;;;;4963854;28;20022;-71
2023/10/28 08:38:18;;;;;;;7.30;1.40;;;12.40;99.90;;;;;;4968198;28;20034;-72
2023/10/28 08:40:46;;;;;;;2.92;1.25;;;12.40;99.90;;;;;;4967389;28;20031;-71
2023/10/28 08:43:15;;;;;;;2.10;1.08;;;12.50;99.90;;;;;;4965761;28;20105;-72
2023/10/28 08:45:42;;;;;;;7.03;1.30;;;12.50;99.90;;;;;;4964683;28;20034;-71
2023/10/28 08:48:11;;;;;;;2.83;1.00;;;12.50;99.90;;;;;;4967809;28;20018;-72
2023/10/28 08:50:39;;;;;;;3.83;1.17;;;12.60;99.90;;;;;;4969743;28;20045;-72
2023/10/28 08:53:08;;;;;;;2.92;0.93;;;12.60;99.90;;;;;;4971732;28;20121;-72
2023/10/28 08:55:36;;;;;;;4.82;1.23;;;12.70;99.90;;;;;;4961238;28;20027;-72
2023/10/28 08:58:03;;;;;;;5.03;1.00;;;12.70;99.90;;;;;;4952861;28;20023;-72
2023/10/28 09:00:30;;;;;;;3.85;0.95;;;12.70;99.90;;;;;;4968763;28;20035;-72
2023/10/28 09:02:56;;;;;;;5.75;1.23;;;12.80;99.90;;;;;;4969127;28;20054;-72
2023/10/28 09:05:22;;;;;;;5.70;0.90;;;12.80;99.90;;;;;;4966052;28;20030;-72
2023/10/28 09:07:48;;;;;;;4.10;1.10;;;12.80;99.90;;;;;;4952011;28;20030;-72
2023/10/28 09:10:14;;;;;;;6.47;1.00;;;12.90;99.90;;;;;;4966194;28;20023;-72
2023/10/28 09:12:40;;;;;;;5.50;1.50;;;12.80;99.90;;;;;;4970639;28;20026;-72
2023/10/28 09:15:08;;;;;;;4.55;1.60;;;12.90;99.90;;;;;;4964548;28;20050;-72
2023/10/28 09:17:35;;;;;;;5.10;1.88;;;13.00;99.90;;;;;;4969313;28;20371;-72
2023/10/28 09:20:05;;;;;;;4.07;0.98;;;13.00;99.90;;;;;;4964720;28;20027;-71
2023/10/28 09:22:31;;;;;;;7.20;2.50;;;13.10;99.90;;;;;;4965808;28;20051;-72
2023/10/28 09:24:57;;;;;;;4.95;1.42;;;13.10;99.90;;;;;;4965941;28;20023;-72
2023/10/28 09:27:23;;;;;;;17.33;1.55;;;13.10;99.90;;;;;;4966721;28;20033;-72
2023/10/28 09:29:48;;;;;;;6.85;1.73;;;13.20;99.90;;;;;;4964728;28;20085;-72
2023/10/28 09:32:14;;;;;;;4.40;1.60;;;13.30;99.90;;;;;;4968585;28;20565;-72
2023/10/28 09:34:41;;;;;;;4.97;2.13;;;13.20;99.90;;;;;;4969330;28;20031;-71
2023/10/28 09:37:10;;;;;;;4.13;1.20;;;13.30;99.90;;;;;;4965140;28;20059;-72
2023/10/28 09:39:36;;;;;;;4.85;1.30;;;13.30;99.90;;;;;;4969440;28;20839;-71
2023/10/28 09:42:02;;;;;;;4.32;1.33;;;13.40;99.90;;;;;;4967410;28;20504;-72
2023/10/28 09:44:28;;;;;;;5.38;1.52;;;13.40;99.90;;;;;;4969720;28;20408;-73
2023/10/28 09:47:01;;;;;;;5.32;1.35;;;13.50;99.90;;;;;;4968590;28;20026;-73
2023/10/28 09:49:30;;;;;;;3.65;1.38;;;13.50;99.90;;;;;;4966434;28;20039;-73
2023/10/28 09:52:05;;;;;;;2.90;0.82;;;13.60;99.90;;;;;;4966194;28;20390;-73
2023/10/28 09:54:34;;;;;;;5.28;1.20;;;13.60;99.90;;;;;;4968513;28;20438;-73
2023/10/28 09:57:01;;;;;;;5.20;0.90;;;13.60;99.90;;;;;;4966920;28;20027;-72
2023/10/28 09:59:34;;;;;;;2.85;0.88;;;13.70;99.90;;;;;;4964720;28;20019;-72
2023/10/28 10:02:01;;;;;;;4.72;1.52;;;13.70;99.90;;;;;;4966546;28;20039;-72
2023/10/28 10:04:40;;;;;;;4.80;1.20;;;13.70;99.90;;;;;;4964529;28;20029;-73
2023/10/28 10:07:06;;;;;;;5.65;0.93;;;13.70;99.90;;;;;;4951536;28;20584;-73
2023/10/28 10:09:47;;;;;;;2.70;0.75;;;13.70;99.90;;;;;;4954437;28;20031;-73
2023/10/28 10:12:13;;;;;;;4.57;1.10;;;13.70;99.90;;;;;;4952560;28;20054;-71
2023/10/28 10:14:47;;;;;;;5.45;1.25;;;13.80;99.90;;;;;;4967071;28;20023;-73
2023/10/28 10:17:36;;;;;;;3.92;1.25;;;13.80;99.90;;;;;;4971156;28;20050;-73
2023/10/28 10:20:04;;;;;;;4.85;1.73;;;13.90;99.90;;;;;;4969579;28;20030;-72
2023/10/28 10:22:31;;;;;;;5.20;1.38;;;13.90;99.90;;;;;;4963573;28;20089;-73
2023/10/28 10:24:57;;;;;;;6.72;1.75;;;14.00;99.90;;;;;;4968793;28;20541;-73
2023/10/28 10:27:45;;;;;;;6.38;1.88;;;14.00;99.90;;;;;;4951382;28;20034;-72
2023/10/28 10:30:12;;;;;;;5.13;1.60;;;14.00;99.90;;;;;;4962390;28;20041;-73
2023/10/28 10:32:46;;;;;;;7.72;2.10;;;14.00;99.90;;;;;;4961160;28;20108;-73
2023/10/28 10:35:25;;;;;;;8.05;2.17;;;14.10;99.90;;;;;;4958689;28;20058;-72
2023/10/28 10:38:09;;;;;;;6.03;1.13;;;14.10;99.90;;;;;;4957142;28;21247;-73
2023/10/28 10:40:48;;;;;;;6.50;1.83;;;14.10;99.90;;;;;;4962561;28;20116;-73
2023/10/28 10:43:19;;;;;;;5.22;1.73;;;14.20;99.90;;;;;;4960807;28;20553;-73
2023/10/28 10:45:46;;;;;;;5.20;1.52;;;14.20;99.90;;;;;;4957825;28;20077;-73
2023/10/28 10:48:13;;;;;;;4.80;1.67;;;14.20;99.90;;;;;;4956046;28;20031;-73
2023/10/28 10:50:41;;;;;;;10.35;1.58;;;14.30;99.90;;;;;;4960575;28;20042;-72
2023/10/28 10:53:07;;;;;;;3.55;1.70;;;14.40;99.90;;;;;;4962308;28;20102;-73
2023/10/28 10:55:33;;;;;;;4.07;1.40;;;14.40;99.90;;;;;;4962786;28;20117;-71
2023/10/28 10:57:59;;;;;;;7.47;1.83;;;14.50;99.90;;;;;;4965531;28;20054;-72
2023/10/28 11:00:26;;;;;;;6.22;1.95;;;14.50;99.90;;;;;;4967398;28;20027;-72
2023/10/28 11:02:57;;;;;;;7.20;2.25;;;14.60;99.90;;;;;;4967263;28;20386;-71
2023/10/28 11:05:22;;;;;;;7.97;2.38;;;14.60;99.90;;;;;;4963895;28;20261;-72
2023/10/28 11:07:48;;;;;;;6.80;1.70;;;14.60;99.90;;;;;;4959997;28;20511;-72
2023/10/28 11:10:14;;;;;;;6.88;1.80;;;14.70;99.90;;;;;;4956180;28;20082;-72
2023/10/28 11:12:41;;;;;;;8.55;2.05;;;14.70;99.90;;;;;;4964613;28;20070;-73
2023/10/28 11:15:08;;;;;;;6.13;1.40;;;14.80;99.90;;;;;;4969597;28;20046;-72
2023/10/28 11:17:34;;;;;;;6.68;1.60;;;14.80;99.80;;;;;;4970477;28;20022;-72
2023/10/28 11:20:02;;;;;;;8.85;2.20;;;14.90;99.80;;;;;;4961586;28;20039;-73
2023/10/28 11:22:28;;;;;;;4.15;1.27;;;14.80;99.60;;;;;;4967256;28;20035;-73
2023/10/28 11:24:55;;;;;;;7.82;1.77;;;14.80;99.50;;;;;;4962874;28;20034;-73
2023/10/28 11:27:22;;;;;;;6.90;1.98;;;14.80;99.70;;;;;;4967409;28;20050;-73
2023/10/28 11:29:49;;;;;;;7.15;2.00;;;14.70;99.40;;;;;;4964304;28;20026;-73
2023/10/28 11:32:15;;;;;;;3.97;1.38;;;14.70;99.80;;;;;;4969619;28;20098;-73
2023/10/28 11:34:41;;;;;;;5.25;1.20;;;14.70;99.70;;;;;;4967542;28;20438;-73
2023/10/28 11:37:10;;;;;;;6.65;1.20;;;14.70;99.90;;;;;;4968419;28;20030;-73
2023/10/28 11:39:40;;;;;;;7.68;1.60;;;14.70;99.20;;;;;;4962111;28;20486;-73
2023/10/28 11:42:12;;;;;;;7.70;1.58;;;14.70;99.60;;;;;;4949721;28;20045;-72
2023/10/28 11:44:40;;;;;;;6.72;1.67;;;14.60;99.70;;;;;;4965932;28;20054;-72
2023/10/28 11:47:05;;;;;;;6.63;1.48;;;14.60;99.80;;;;;;4968956;28;20042;-73
2023/10/28 11:49:31;;;;;;;3.95;1.50;;;14.60;99.90;;;;;;4964978;28;20073;-72
2023/10/28 11:51:57;;;;;;;7.18;2.03;;;14.50;99.70;;;;;;4962991;28;20031;-73
2023/10/28 11:54:23;;;;;;;3.65;1.27;;;14.50;99.90;;;;;;4968253;28;20050;-72
2023/10/28 11:56:48;;;;;;;4.65;1.30;;;14.50;99.90;;;;;;4964508;28;20023;-72
2023/10/28 11:59:14;;;;;;;6.10;1.77;;;14.50;99.90;;;;;;4965108;28;20026;-72
2023/10/28 12:01:40;;;;;;;5.22;1.20;;;14.40;99.90;;;;;;4947919;28;20548;-73
2023/10/28 12:04:08;;;;;;;4.90;1.25;;;14.40;99.90;;;;;;4960917;28;20041;-72
2023/10/28 12:06:34;;;;;;;6.05;1.45;;;14.40;99.90;;;;;;4956593;28;20030;-74
2023/10/28 12:09:04;;;;;;;7.60;1.33;;;14.40;99.90;;;;;;4965457;28;20077;-72
2023/10/28 12:11:31;;;;;;;7.05;1.55;;;14.40;99.90;;;;;;4964300;28;20058;-73
2023/10/28 12:13:57;;;;;;;6.63;1.20;;;14.40;99.90;;;;;;4959504;28;20035;-73
2023/10/28 12:16:23;;;;;;;6.00;1.40;;;14.50;99.90;;;;;;4961782;28;20031;-73
2023/10/28 12:18:49;;;;;;;3.75;1.15;;;14.50;99.90;;;;;;4966369;28;20027;-73
2023/10/28 12:21:17;;;;;;;7.07;1.70;;;14.50;99.90;;;;;;4965184;28;20034;-73
2023/10/28 12:23:47;;;;;;;5.57;1.20;;;14.60;99.90;;;;;;4968150;28;20026;-73
2023/10/28 12:26:13;;;;;;;4.93;1.27;;;14.60;99.90;;;;;;4970296;28;20409;-72
2023/10/28 12:28:38;;;;;;;4.43;1.08;;;14.70;99.90;;;;;;4963253;28;20026;-73
2023/10/28 12:31:05;;;;;;;5.68;1.10;;;14.80;99.90;;;;;;4966593;28;20039;-73
2023/10/28 12:33:31;;;;;;;2.47;1.00;;;15.00;99.30;;;;;;4966795;28;20077;-74
2023/10/28 12:35:57;;;;;;;5.65;1.20;;;15.10;99.40;;;;;;4967805;28;20394;-73
2023/10/28 12:38:23;;;;;;;4.53;1.27;;;15.20;99.20;;;;;;4965004;28;20043;-73
2023/10/28 12:40:49;;;;;;;5.05;1.10;;;15.40;99.10;;;;;;4961905;28;20057;-73
2023/10/28 12:43:14;;;;;;;5.53;1.25;;;15.60;98.40;;;;;;4962136;28;20031;-73